Terminal Aerodrome Forecast
Issued by NWS

Home | Current Version | Previous Version | Text Only | Print | Product List | Glossary On
Versions: 1 2 3 4 5 6 7 8 9 10 11 12 13 14 15 16 17 18 19 20 21 22 23 24 25 26 27 28 29 30 31 32 33
000
FTAK31 PANC 032331
TAFATK
TAF
PATK 032331Z 0400/0424 34005KT 6SM -SHSN OVC040
     FM041200 VRB03KT P6SM VCSH SCT025 OVC040
     FM041800 VRB04KT P6SM SCT040 BKN060=

USA.gov is the U.S. government's official web portal to all federal, state and local government web resources and services.